Ana Sayfa
METAR-TAF:

METAR-TAF

Havaalanları :

Thomas County Airport

Thedford, Nebraska, Amerika Birleşik Devletleri

Enlem: 41-57-43N, Boylam: 100-34-08W, yükseklik: 892 m

Güncel hava durumu gözlemi

Rapor saat 05:15 UTC de 50 dakika önce yapıldı.
Sakin rüzgar
Sıcaklık 20°C
Nem 83%
Basınç 1022 hPa
Görüş mesafesi: 16.1 km
Açık gökyüzü

METAR: KTIF 250515Z AUTO 00000KT 10SM CLR 20/17 A3019 RMK AO2 T02010170

Saat: 01:05 (06:05 UTC)


TAF: eksik

4.000'den fazla havaalanı için hava durumu gözlemleri ve tahminleri (METAR ve TAF raporları).

Kullanılabilir istasyonlar harita üzerinde sarı ve kırmızı noktalarla gösterilir.

İstasyonun adını görmek için fareyi noktanın üzerinde gezdirin.

Sonrasında hava gözlem ve tahminlerini görmek için tıklayın.

Haritayı değiştirmek için: yaklaştırmak için siyah artı işaretli yeşil düğmeye ve uzaklaştırmak için de eksi işaretli düğmeye hızla tıklayın; bitişik haritalar için yeşil okları kullanın.


METAR-TAF: